createdAt,value
2023-03-12T00:01:41.011Z,64.99
2023-03-12T00:04:08.940Z,65.16
2023-03-12T00:06:38.046Z,64.60
2023-03-12T00:09:06.149Z,64.57
2023-03-12T00:11:34.056Z,64.85
2023-03-12T00:14:03.406Z,64.98
2023-03-12T00:16:31.347Z,65.14
2023-03-12T00:18:59.300Z,65.26
2023-03-12T00:21:27.244Z,65.29
2023-03-12T00:23:55.396Z,65.40
2023-03-12T00:26:23.971Z,65.15
2023-03-12T00:28:52.137Z,65.54
2023-03-12T00:31:23.675Z,64.85
2023-03-12T00:33:51.743Z,64.17
2023-03-12T00:36:21.442Z,64.30
2023-03-12T00:38:49.373Z,64.56
2023-03-12T00:41:17.429Z,64.10
2023-03-12T00:43:45.265Z,64.42
2023-03-12T00:46:13.165Z,64.34
2023-03-12T00:48:42.596Z,64.60
2023-03-12T00:51:11.073Z,64.89
2023-03-12T00:53:39.234Z,64.66
2023-03-12T00:56:08.258Z,65.47
2023-03-12T00:58:36.227Z,65.56
2023-03-12T01:01:04.675Z,66.21
2023-03-12T01:03:32.692Z,66.15
2023-03-12T01:06:01.925Z,65.99
2023-03-12T01:08:29.973Z,66.04
2023-03-12T01:10:57.874Z,66.42
2023-03-12T01:13:25.974Z,66.03
2023-03-12T01:15:53.844Z,66.08
2023-03-12T01:18:22.139Z,65.88
2023-03-12T01:20:50.817Z,65.98
2023-03-12T01:23:20.047Z,65.92
2023-03-12T01:25:49.369Z,65.84
2023-03-12T01:28:17.270Z,66.06
2023-03-12T01:30:45.145Z,65.53
2023-03-12T01:33:12.983Z,65.39
2023-03-12T01:35:42.608Z,65.54
2023-03-12T01:38:14.071Z,65.42
2023-03-12T01:40:45.348Z,65.28
2023-03-12T01:43:25.881Z,65.41
2023-03-12T01:46:29.175Z,65.48
2023-03-12T01:49:02.169Z,65.18
2023-03-12T01:51:34.990Z,65.03
2023-03-12T01:54:08.483Z,64.95
2023-03-12T01:56:39.788Z,64.89
2023-03-12T01:59:12.900Z,65.37
2023-03-12T02:01:42.798Z,65.01
2023-03-12T02:04:12.665Z,65.46
2023-03-12T02:06:46.450Z,65.14
2023-03-12T02:09:15.174Z,65.21
2023-03-12T02:11:44.388Z,64.73
2023-03-12T02:14:12.728Z,65.05
2023-03-12T02:16:40.666Z,64.68
2023-03-12T02:19:17.370Z,64.87
2023-03-12T02:21:45.401Z,65.55
2023-03-12T02:24:23.174Z,66.34
2023-03-12T02:26:52.823Z,66.50
2023-03-12T02:29:20.994Z,66.92
2023-03-12T02:31:54.869Z,66.84
2023-03-12T02:34:22.895Z,67.09
2023-03-12T02:36:50.873Z,67.09
2023-03-12T02:39:19.526Z,67.44
2023-03-12T02:41:53.520Z,67.36
2023-03-12T02:44:24.957Z,67.52
2023-03-12T02:46:55.107Z,67.35
2023-03-12T02:49:26.711Z,67.61
2023-03-12T02:51:54.719Z,67.27
2023-03-12T02:54:23.438Z,67.39
2023-03-12T02:56:52.516Z,67.37
2023-03-12T02:59:21.773Z,67.24
2023-03-12T03:01:55.390Z,67.39
2023-03-12T03:04:24.120Z,67.42
2023-03-12T03:06:52.631Z,67.26
2023-03-12T03:09:22.113Z,67.41
2023-03-12T03:11:50.124Z,67.49
2023-03-12T03:14:18.618Z,67.52
2023-03-12T03:16:49.154Z,67.23
2023-03-12T03:19:18.453Z,67.38
2023-03-12T03:21:46.577Z,67.12
2023-03-12T03:24:14.443Z,66.53
2023-03-12T03:26:42.724Z,66.49
2023-03-12T03:29:10.760Z,66.37
2023-03-12T03:31:38.763Z,66.29
2023-03-12T03:34:06.752Z,66.86
2023-03-12T03:36:36.123Z,67.18
2023-03-12T03:39:12.263Z,67.83
2023-03-12T03:41:40.154Z,67.63
2023-03-12T03:44:08.753Z,67.57
2023-03-12T03:46:38.770Z,67.34
2023-03-12T03:49:09.752Z,67.03
2023-03-12T03:51:42.558Z,66.88
2023-03-12T03:54:12.634Z,66.52
2023-03-12T03:56:42.194Z,66.02
2023-03-12T03:59:11.197Z,66.19
2023-03-12T04:01:40.991Z,66.85
2023-03-12T04:04:08.847Z,66.38
2023-03-12T04:06:38.981Z,66.43
2023-03-12T04:09:08.206Z,66.87
2023-03-12T04:11:38.537Z,66.83
2023-03-12T04:14:08.234Z,67.22
2023-03-12T04:16:38.573Z,67.07
2023-03-12T04:19:06.526Z,67.08
2023-03-12T04:21:34.526Z,67.15
2023-03-12T04:24:02.822Z,67.23
2023-03-12T04:26:35.967Z,67.23
2023-03-12T04:29:05.884Z,66.95
2023-03-12T04:31:34.737Z,67.28
2023-03-12T04:34:02.729Z,67.39
2023-03-12T04:36:31.005Z,67.56
2023-03-12T04:38:59.993Z,66.89
2023-03-12T04:41:32.585Z,67.15
2023-03-12T04:44:07.276Z,66.89
2023-03-12T04:46:37.257Z,66.79
2023-03-12T04:49:06.228Z,66.97
2023-03-12T04:51:36.850Z,67.02
2023-03-12T04:54:08.363Z,67.22
2023-03-12T04:56:37.407Z,67.32
2023-03-12T04:59:07.628Z,67.40
2023-03-12T05:01:37.582Z,67.16
2023-03-12T05:04:10.577Z,66.78
2023-03-12T05:06:38.469Z,67.14
2023-03-12T05:09:06.423Z,67.26
2023-03-12T05:11:34.544Z,67.15
2023-03-12T05:14:02.923Z,66.61
2023-03-12T05:16:32.482Z,66.83
2023-03-12T05:19:02.274Z,66.75
2023-03-12T05:21:31.613Z,66.65
2023-03-12T05:23:59.874Z,66.74
2023-03-12T05:26:32.672Z,66.74
2023-03-12T05:29:22.264Z,66.85
2023-03-12T05:31:51.913Z,67.22
2023-03-12T05:34:19.972Z,67.19
2023-03-12T05:36:47.857Z,67.11
2023-03-12T05:39:20.538Z,66.79
2023-03-12T05:41:49.127Z,67.09
2023-03-12T05:44:19.567Z,66.71
2023-03-12T05:46:53.980Z,66.76
2023-03-12T05:49:25.342Z,66.35
2023-03-12T05:51:54.424Z,66.55
2023-03-12T05:54:24.262Z,66.23
2023-03-12T05:56:53.445Z,66.53
2023-03-12T05:59:23.458Z,66.22
2023-03-12T06:01:53.954Z,66.12
2023-03-12T06:04:21.922Z,65.73
2023-03-12T06:06:49.866Z,65.85
2023-03-12T06:09:17.788Z,65.94
2023-03-12T06:11:45.706Z,65.78
2023-03-12T06:14:14.706Z,65.76
2023-03-12T06:16:43.001Z,65.75
2023-03-12T06:19:14.686Z,65.31
2023-03-12T06:21:44.951Z,65.22
2023-03-12T06:24:13.904Z,65.36
2023-03-12T06:26:48.314Z,65.30
2023-03-12T06:29:16.221Z,65.07
2023-03-12T06:31:44.317Z,64.78
2023-03-12T06:34:13.791Z,64.75
2023-03-12T06:36:41.750Z,65.07
2023-03-12T06:39:09.879Z,64.67
2023-03-12T06:41:38.123Z,64.94
2023-03-12T06:44:06.326Z,64.71
2023-03-12T06:46:34.645Z,64.74
2023-03-12T06:49:03.380Z,64.71
2023-03-12T06:51:32.677Z,64.78
2023-03-12T06:54:01.137Z,64.93
2023-03-12T06:56:29.236Z,64.95
2023-03-12T06:58:57.359Z,64.81
2023-03-12T07:01:25.218Z,64.65
2023-03-12T07:03:53.112Z,64.90
2023-03-12T07:06:23.179Z,64.91
2023-03-12T07:08:53.324Z,65.05
2023-03-12T07:11:21.200Z,64.44
2023-03-12T07:13:49.055Z,64.64
2023-03-12T07:16:17.000Z,64.57
2023-03-12T07:18:44.951Z,64.73
2023-03-12T07:21:12.871Z,64.54
2023-03-12T07:23:40.707Z,64.74
2023-03-12T07:26:10.003Z,64.58
2023-03-12T07:28:37.920Z,65.03
2023-03-12T07:31:06.397Z,64.54
2023-03-12T07:33:35.144Z,64.45
2023-03-12T07:36:03.943Z,64.64
2023-03-12T07:38:32.595Z,64.73
2023-03-12T07:41:01.350Z,64.66
2023-03-12T07:43:30.724Z,64.23
2023-03-12T07:45:58.647Z,64.45
2023-03-12T07:48:26.484Z,64.35
2023-03-12T07:50:54.481Z,64.25
2023-03-12T07:53:22.546Z,64.21
2023-03-12T07:55:50.558Z,64.09
2023-03-12T07:58:18.801Z,64.62
2023-03-12T08:00:48.103Z,64.37
2023-03-12T08:03:16.940Z,64.16
2023-03-12T08:05:45.611Z,63.60
2023-03-12T08:08:13.587Z,64.08
2023-03-12T08:10:41.530Z,63.21
2023-03-12T08:13:09.429Z,62.97
2023-03-12T08:15:37.284Z,63.15
2023-03-12T08:18:06.633Z,61.87
2023-03-12T08:20:34.956Z,60.86
2023-03-12T08:23:02.893Z,60.63
2023-03-12T08:25:30.847Z,60.80
2023-03-12T08:27:58.656Z,60.28
2023-03-12T08:30:29.155Z,60.45
2023-03-12T08:32:58.229Z,60.44
2023-03-12T08:35:27.505Z,60.16
2023-03-12T08:37:57.033Z,60.24
2023-03-12T08:40:25.388Z,59.55
2023-03-12T08:42:53.252Z,60.33
2023-03-12T08:45:21.339Z,60.24
2023-03-12T08:47:50.338Z,59.71
2023-03-12T08:50:18.516Z,60.25
2023-03-12T08:52:47.690Z,60.34
2023-03-12T08:55:16.034Z,60.16
2023-03-12T08:57:44.096Z,60.25
2023-03-12T09:00:15.907Z,60.20
2023-03-12T09:02:45.581Z,60.04
2023-03-12T09:05:14.105Z,59.60
2023-03-12T09:07:42.641Z,58.90
2023-03-12T09:10:12.448Z,59.21
2023-03-12T09:12:40.448Z,58.92
2023-03-12T09:15:09.831Z,58.81
2023-03-12T09:17:38.073Z,58.38
2023-03-12T09:20:08.553Z,58.47
2023-03-12T09:22:37.067Z,58.79
2023-03-12T09:25:05.488Z,58.39
2023-03-12T09:27:38.677Z,59.11
2023-03-12T09:30:08.328Z,58.45
2023-03-12T09:32:36.342Z,58.49
2023-03-12T09:35:04.833Z,58.01
2023-03-12T09:37:33.278Z,57.94
2023-03-12T09:40:01.381Z,57.71
2023-03-12T09:42:33.687Z,57.12
2023-03-12T09:45:06.597Z,57.16
2023-03-12T09:47:37.241Z,56.54
2023-03-12T09:50:17.662Z,56.91
2023-03-12T09:52:49.800Z,56.79
2023-03-12T09:55:19.713Z,56.78
2023-03-12T09:57:49.129Z,55.98
2023-03-12T10:00:20.948Z,56.34
2023-03-12T10:03:16.149Z,56.61
2023-03-12T10:05:48.350Z,56.64
2023-03-12T10:08:29.834Z,56.52
2023-03-12T10:11:09.545Z,56.14
2023-03-12T10:13:53.307Z,56.02
2023-03-12T10:16:43.187Z,55.94
2023-03-12T10:19:28.276Z,55.95
2023-03-12T10:22:08.046Z,55.95
2023-03-12T10:24:52.458Z,55.43
2023-03-12T10:27:34.869Z,55.27
2023-03-12T10:30:04.041Z,54.37
2023-03-12T10:32:40.410Z,54.41
2023-03-12T10:35:18.891Z,53.81
2023-03-12T10:37:50.621Z,53.07
2023-03-12T10:40:21.114Z,52.75
2023-03-12T10:42:49.421Z,52.69
2023-03-12T10:45:30.867Z,52.72
2023-03-12T10:48:03.352Z,52.82
2023-03-12T10:50:33.252Z,52.71
2023-03-12T10:53:15.442Z,52.75
2023-03-12T10:55:43.442Z,51.85
2023-03-12T10:58:23.982Z,51.89
2023-03-12T11:00:57.714Z,52.04
2023-03-12T11:03:27.215Z,52.08
2023-03-12T11:05:56.706Z,51.88
2023-03-12T11:08:27.187Z,52.27
2023-03-12T11:10:57.063Z,51.95
2023-03-12T11:13:29.894Z,51.88
2023-03-12T11:15:59.504Z,51.90
2023-03-12T11:18:34.624Z,52.18
2023-03-12T11:21:17.399Z,52.66
2023-03-12T11:23:48.362Z,52.76
2023-03-12T11:26:19.950Z,52.72
2023-03-12T11:28:50.066Z,51.71
2023-03-12T11:31:24.257Z,50.50
2023-03-12T11:33:58.652Z,50.33
2023-03-12T11:36:45.150Z,50.26
2023-03-12T11:39:25.430Z,50.52
2023-03-12T11:42:12.439Z,50.48
2023-03-12T11:44:53.852Z,49.90
2023-03-12T11:47:38.732Z,49.32
2023-03-12T11:50:34.001Z,48.03
2023-03-12T11:53:18.453Z,46.99
2023-03-12T11:56:00.144Z,47.18
2023-03-12T11:58:43.931Z,47.37
2023-03-12T12:01:17.154Z,46.24
2023-03-12T12:04:34.439Z,45.53
2023-03-12T12:07:15.087Z,45.04
2023-03-12T12:09:50.124Z,43.60
2023-03-12T12:12:29.504Z,43.47
2023-03-12T12:15:09.273Z,43.04
2023-03-12T12:17:50.211Z,42.22
2023-03-12T12:20:26.862Z,41.43
2023-03-12T12:23:10.455Z,40.70
2023-03-12T12:25:58.549Z,40.31
2023-03-12T12:29:05.436Z,39.35
2023-03-12T12:31:44.538Z,38.86
2023-03-12T12:34:32.586Z,38.59
2023-03-12T12:37:16.774Z,37.94
2023-03-12T12:39:50.875Z,36.02
2023-03-12T12:42:24.192Z,36.93
2023-03-12T12:44:54.569Z,36.76
2023-03-12T12:47:31.419Z,36.23
2023-03-12T12:50:00.089Z,35.52
2023-03-12T12:52:28.453Z,35.62
2023-03-12T12:55:05.466Z,34.12
2023-03-12T12:57:40.376Z,33.10
2023-03-12T13:00:23.196Z,32.73
2023-03-12T13:02:52.433Z,33.18
2023-03-12T13:05:22.987Z,33.20
2023-03-12T13:07:50.885Z,33.93
2023-03-12T13:10:57.113Z,34.69
2023-03-12T13:13:30.599Z,34.30
2023-03-12T13:16:28.058Z,34.61
2023-03-12T13:19:00.314Z,33.71
2023-03-12T13:21:36.177Z,32.53
2023-03-12T13:24:20.223Z,31.37
2023-03-12T13:26:57.261Z,30.50
2023-03-12T13:29:38.161Z,31.21
2023-03-12T13:32:08.990Z,29.83
2023-03-12T13:34:47.570Z,30.25
2023-03-12T13:37:58.119Z,30.61
2023-03-12T13:40:54.455Z,29.79
2023-03-12T13:43:54.621Z,29.91
2023-03-12T13:46:38.115Z,30.01
2023-03-12T13:49:12.581Z,30.23
2023-03-12T13:51:55.978Z,30.35
2023-03-12T13:54:28.930Z,31.26
2023-03-12T13:56:59.950Z,31.63
2023-03-12T13:59:30.932Z,31.29
2023-03-12T14:02:05.738Z,30.50
2023-03-12T14:04:39.774Z,31.12
2023-03-12T14:07:40.616Z,30.40
2023-03-12T14:10:25.381Z,29.90
2023-03-12T14:13:01.167Z,28.97
2023-03-12T14:15:39.772Z,27.16
2023-03-12T14:18:16.306Z,27.25
2023-03-12T14:20:53.899Z,26.82
2023-03-12T14:23:23.751Z,26.73
2023-03-12T14:25:57.765Z,26.62
2023-03-12T14:28:26.438Z,26.54
2023-03-12T14:31:00.778Z,26.81
2023-03-12T14:33:34.371Z,26.78
2023-03-12T14:36:07.435Z,26.74
2023-03-12T14:38:38.772Z,27.03
2023-03-12T14:41:13.492Z,26.33
2023-03-12T14:43:42.833Z,26.92
2023-03-12T14:46:17.891Z,26.09
2023-03-12T14:48:48.846Z,26.21
2023-03-12T14:51:24.093Z,26.38
2023-03-12T14:53:53.627Z,26.47
2023-03-12T14:56:29.470Z,27.21
2023-03-12T14:58:59.288Z,27.05
2023-03-12T15:01:30.780Z,27.42
2023-03-12T15:04:02.008Z,28.54
2023-03-12T15:06:32.497Z,28.39
2023-03-12T15:09:04.452Z,28.31
2023-03-12T15:11:35.154Z,26.96
2023-03-12T15:14:06.867Z,27.17
2023-03-12T15:16:36.902Z,28.18
2023-03-12T15:19:05.772Z,27.54
2023-03-12T15:21:34.570Z,28.15
2023-03-12T15:24:03.542Z,28.25
2023-03-12T15:26:34.454Z,27.93
2023-03-12T15:29:04.987Z,28.21
2023-03-12T15:31:44.140Z,28.24
2023-03-12T15:34:14.729Z,28.79
2023-03-12T15:36:48.884Z,29.33
2023-03-12T15:39:26.951Z,29.32
2023-03-12T15:41:55.959Z,29.82
2023-03-12T15:44:25.994Z,29.64
2023-03-12T15:47:04.727Z,30.14
2023-03-12T15:49:35.634Z,30.52
2023-03-12T15:52:07.285Z,30.75
2023-03-12T15:54:40.469Z,30.07
2023-03-12T15:57:25.859Z,30.36
2023-03-12T16:00:23.103Z,31.14
2023-03-12T16:02:55.016Z,30.89
2023-03-12T16:05:25.839Z,30.85
2023-03-12T16:07:54.274Z,31.53
2023-03-12T16:10:24.182Z,31.24
2023-03-12T16:12:59.735Z,31.43
2023-03-12T16:15:32.277Z,32.25
2023-03-12T16:18:01.574Z,31.64
2023-03-12T16:20:30.497Z,32.02
2023-03-12T16:22:58.739Z,32.79
2023-03-12T16:25:27.387Z,32.36
2023-03-12T16:27:59.222Z,32.86
2023-03-12T16:30:29.888Z,33.89
2023-03-12T16:32:58.383Z,34.32
2023-03-12T16:35:31.305Z,33.88
2023-03-12T16:38:00.863Z,34.24
2023-03-12T16:40:33.892Z,34.72
2023-03-12T16:43:04.538Z,35.41
2023-03-12T16:45:35.671Z,36.03
2023-03-12T16:48:06.277Z,36.28
2023-03-12T16:50:35.553Z,36.23
2023-03-12T16:53:04.434Z,36.76
2023-03-12T16:55:46.749Z,37.17
2023-03-12T16:58:17.414Z,37.01
2023-03-12T17:00:46.205Z,37.71
2023-03-12T17:03:21.761Z,37.58
2023-03-12T17:05:51.039Z,37.52
2023-03-12T17:08:18.969Z,38.35
2023-03-12T17:10:46.888Z,38.00
2023-03-12T17:13:20.827Z,38.77
2023-03-12T17:15:49.355Z,38.22
2023-03-12T17:18:18.185Z,38.17
2023-03-12T17:20:46.366Z,38.28
2023-03-12T17:23:15.676Z,38.58
2023-03-12T17:25:45.221Z,38.74
2023-03-12T17:28:15.156Z,38.25
2023-03-12T17:30:43.798Z,38.91
2023-03-12T17:33:13.824Z,38.60
2023-03-12T17:35:42.096Z,38.18
2023-03-12T17:38:10.370Z,38.15
2023-03-12T17:40:42.264Z,38.52
2023-03-12T17:43:10.287Z,39.07
2023-03-12T17:45:38.137Z,39.51
2023-03-12T17:48:06.312Z,39.93
2023-03-12T17:50:34.275Z,40.44
2023-03-12T17:53:02.197Z,40.72
2023-03-12T17:55:30.060Z,40.67
2023-03-12T17:57:59.442Z,41.28
2023-03-12T18:00:27.362Z,40.70
2023-03-12T18:02:55.351Z,41.30
2023-03-12T18:05:23.305Z,41.51
2023-03-12T18:07:51.301Z,41.69
2023-03-12T18:10:19.526Z,41.83
2023-03-12T18:12:47.401Z,41.36
2023-03-12T18:15:17.280Z,41.96
2023-03-12T18:17:45.799Z,41.67
2023-03-12T18:20:17.896Z,41.99
2023-03-12T18:22:47.506Z,41.81
2023-03-12T18:25:15.469Z,41.86
2023-03-12T18:27:43.426Z,42.50
2023-03-12T18:30:13.501Z,42.76
2023-03-12T18:32:42.722Z,42.67
2023-03-12T18:35:11.185Z,42.95
2023-03-12T18:37:39.015Z,42.24
2023-03-12T18:40:08.108Z,42.64
2023-03-12T18:42:35.980Z,42.45
2023-03-12T18:45:04.066Z,42.78
2023-03-12T18:47:34.862Z,43.15
2023-03-12T18:50:04.201Z,42.86
2023-03-12T18:52:32.270Z,42.77
2023-03-12T18:55:00.230Z,43.04
2023-03-12T18:57:28.303Z,42.89
2023-03-12T18:59:56.244Z,42.99
2023-03-12T19:02:24.911Z,43.10
2023-03-12T19:04:55.855Z,43.35
2023-03-12T19:07:25.439Z,43.20
2023-03-12T19:09:53.334Z,43.61
2023-03-12T19:12:21.291Z,44.05
2023-03-12T19:14:49.236Z,43.64
2023-03-12T19:17:17.335Z,44.12
2023-03-12T19:19:45.247Z,44.24
2023-03-12T19:22:13.147Z,43.99
2023-03-12T19:24:44.317Z,44.39
2023-03-12T19:27:12.667Z,44.27
2023-03-12T19:29:40.572Z,44.61
2023-03-12T19:32:09.185Z,44.72
2023-03-12T19:34:37.217Z,44.54
2023-03-12T19:37:05.149Z,44.32
2023-03-12T19:39:33.022Z,44.16
2023-03-12T19:42:02.219Z,43.92
2023-03-12T19:44:30.835Z,44.05
2023-03-12T19:46:58.670Z,43.70
2023-03-12T19:49:26.779Z,43.68
2023-03-12T19:51:54.642Z,43.65
2023-03-12T19:54:22.517Z,43.66
2023-03-12T19:56:50.507Z,44.17
2023-03-12T19:59:19.772Z,43.60
2023-03-12T20:01:47.706Z,43.95
2023-03-12T20:04:15.757Z,43.77
2023-03-12T20:06:43.715Z,44.15
2023-03-12T20:09:11.764Z,43.74
2023-03-12T20:11:39.644Z,44.18
2023-03-12T20:14:07.601Z,44.45
2023-03-12T20:16:37.248Z,43.70
2023-03-12T20:19:05.206Z,44.03
2023-03-12T20:21:33.158Z,43.53
2023-03-12T20:24:02.176Z,43.50
2023-03-12T20:26:30.087Z,43.75
2023-03-12T20:29:01.612Z,43.18
2023-03-12T20:31:29.545Z,43.60
2023-03-12T20:33:59.004Z,43.97
2023-03-12T20:36:26.868Z,44.24
2023-03-12T20:38:54.769Z,43.53
2023-03-12T20:41:22.745Z,43.97
2023-03-12T20:43:50.638Z,44.90
2023-03-12T20:46:19.003Z,44.75
2023-03-12T20:48:46.838Z,45.58
2023-03-12T20:51:16.277Z,45.14
2023-03-12T20:53:44.131Z,44.97
2023-03-12T20:56:12.348Z,45.36
2023-03-12T20:58:40.246Z,45.11
2023-03-12T21:01:08.514Z,45.78
2023-03-12T21:03:36.487Z,45.51
2023-03-12T21:06:04.737Z,46.25
2023-03-12T21:08:34.763Z,46.57
2023-03-12T21:11:06.677Z,46.84
2023-03-12T21:13:34.550Z,46.83
2023-03-12T21:16:05.294Z,47.33
2023-03-12T21:18:33.277Z,46.99
2023-03-12T21:21:03.511Z,47.42
2023-03-12T21:23:31.577Z,47.49
2023-03-12T21:26:02.590Z,48.58
2023-03-12T21:28:31.036Z,49.30
2023-03-12T21:31:05.777Z,50.01
2023-03-12T21:33:33.687Z,50.18
2023-03-12T21:36:04.262Z,49.54
2023-03-12T21:38:32.414Z,50.09
2023-03-12T21:41:07.284Z,50.28
2023-03-12T21:43:35.450Z,50.11
2023-03-12T21:46:06.761Z,50.11
2023-03-12T21:48:35.207Z,50.82
2023-03-12T21:51:04.225Z,50.10
2023-03-12T21:53:32.173Z,50.56
2023-03-12T21:56:01.285Z,50.32
2023-03-12T21:58:32.543Z,51.02
2023-03-12T22:01:05.689Z,50.92
2023-03-12T22:03:33.616Z,50.79
2023-03-12T22:06:01.880Z,51.33
2023-03-12T22:08:29.936Z,51.29
2023-03-12T22:10:57.853Z,51.41
2023-03-12T22:13:25.764Z,50.63
2023-03-12T22:15:59.478Z,50.71
2023-03-12T22:18:28.300Z,50.78
2023-03-12T22:20:58.081Z,50.90
2023-03-12T22:23:26.338Z,50.94
2023-03-12T22:25:54.232Z,50.34
2023-03-12T22:28:25.665Z,51.13
2023-03-12T22:30:59.619Z,51.10
2023-03-12T22:33:27.922Z,51.07
2023-03-12T22:35:56.370Z,51.48
2023-03-12T22:38:25.222Z,51.09
2023-03-12T22:40:55.508Z,51.20
2023-03-12T22:43:26.144Z,51.83
2023-03-12T22:45:54.279Z,51.45
2023-03-12T22:48:23.481Z,50.56
2023-03-12T22:50:54.279Z,50.52
2023-03-12T22:53:22.357Z,50.71
2023-03-12T22:55:57.854Z,50.95
2023-03-12T22:58:25.766Z,51.83
2023-03-12T23:00:59.752Z,52.55
2023-03-12T23:03:29.665Z,52.48
2023-03-12T23:05:57.626Z,52.49
2023-03-12T23:08:25.689Z,53.03
2023-03-12T23:10:54.636Z,52.79
2023-03-12T23:13:22.872Z,53.53
2023-03-12T23:15:50.952Z,53.08
2023-03-12T23:18:19.643Z,52.69
2023-03-12T23:20:49.017Z,52.95
2023-03-12T23:23:16.876Z,52.31
2023-03-12T23:25:53.726Z,53.09
2023-03-12T23:28:22.704Z,53.42
2023-03-12T23:30:55.089Z,54.06
2023-03-12T23:33:23.179Z,54.74
2023-03-12T23:35:57.322Z,54.33
2023-03-12T23:38:25.629Z,54.63
2023-03-12T23:40:53.665Z,54.84
2023-03-12T23:43:21.573Z,55.10
2023-03-12T23:45:56.849Z,56.57
2023-03-12T23:48:24.872Z,56.92
2023-03-12T23:50:52.738Z,59.00
2023-03-12T23:53:22.416Z,60.06
2023-03-12T23:55:57.956Z,60.95
2023-03-12T23:58:26.338Z,61.72
